createdAt,value
2023-02-27T00:02:14.296Z,73.45
2023-02-27T00:04:40.917Z,71.65
2023-02-27T00:07:08.658Z,69.10
2023-02-27T00:09:35.260Z,118.35
2023-02-27T00:12:02.365Z,61.92
2023-02-27T00:14:28.927Z,92.60
2023-02-27T00:16:55.433Z,66.38
2023-02-27T00:19:21.986Z,77.15
2023-02-27T00:21:48.552Z,66.65
2023-02-27T00:24:15.156Z,70.97
2023-02-27T00:26:41.809Z,72.28
2023-02-27T00:29:08.367Z,63.88
2023-02-27T00:31:34.955Z,85.28
2023-02-27T00:34:01.518Z,64.40
2023-02-27T00:36:28.156Z,91.22
2023-02-27T00:38:54.769Z,67.50
2023-02-27T00:41:21.427Z,90.35
2023-02-27T00:43:48.000Z,64.70
2023-02-27T00:46:14.716Z,66.50
2023-02-27T00:48:41.275Z,92.90
2023-02-27T00:51:08.291Z,79.20
2023-02-27T00:53:34.810Z,64.20
2023-02-27T00:56:01.309Z,69.55
2023-02-27T00:58:28.094Z,71.68
2023-02-27T01:00:54.622Z,124.60
2023-02-27T01:03:21.176Z,74.68
2023-02-27T01:05:47.664Z,96.47
2023-02-27T01:08:14.439Z,65.43
2023-02-27T01:10:41.053Z,88.50
2023-02-27T01:13:07.904Z,65.63
2023-02-27T01:15:35.274Z,72.95
2023-02-27T01:18:02.362Z,66.05
2023-02-27T01:20:29.043Z,75.43
2023-02-27T01:22:55.564Z,77.70
2023-02-27T01:25:24.967Z,77.57
2023-02-27T01:27:51.438Z,126.10
2023-02-27T01:30:18.250Z,120.15
2023-02-27T01:32:44.888Z,63.60
2023-02-27T01:35:11.616Z,117.30
2023-02-27T01:37:38.364Z,63.50
2023-02-27T01:40:07.018Z,79.88
2023-02-27T01:42:33.735Z,74.30
2023-02-27T01:45:12.238Z,63.58
2023-02-27T01:47:48.497Z,114.75
2023-02-27T01:50:16.374Z,101.10
2023-02-27T01:52:43.948Z,118.18
2023-02-27T01:55:13.667Z,97.97
2023-02-27T01:57:41.616Z,89.20
2023-02-27T02:00:09.305Z,96.82
2023-02-27T02:05:09.006Z,182.57
2023-02-27T02:07:38.558Z,107.53
2023-02-27T02:10:06.156Z,106.25
2023-02-27T02:12:36.505Z,96.97
2023-02-27T02:15:06.301Z,88.30
2023-02-27T02:18:00.290Z,103.13
2023-02-27T02:20:55.968Z,144.55
2023-02-27T02:23:35.978Z,87.78
2023-02-27T02:26:09.710Z,91.68
2023-02-27T02:28:51.518Z,98.57
2023-02-27T02:31:31.105Z,80.68
2023-02-27T02:34:35.336Z,78.10
2023-02-27T02:37:37.236Z,84.90
2023-02-27T02:40:35.261Z,81.45
2023-02-27T02:43:37.722Z,90.30
2023-02-27T02:46:22.524Z,110.15
2023-02-27T02:49:03.858Z,90.40
2023-02-27T02:51:31.214Z,108.47
2023-02-27T02:54:14.947Z,59.28
2023-02-27T02:56:46.442Z,73.43
2023-02-27T02:59:17.551Z,147.43
2023-02-27T03:01:50.171Z,69.10
2023-02-27T03:04:41.002Z,84.45
2023-02-27T03:07:26.159Z,168.60
2023-02-27T03:09:57.053Z,75.18
2023-02-27T03:12:24.888Z,99.97
2023-02-27T03:15:17.799Z,65.63
2023-02-27T03:17:47.799Z,83.68
2023-02-27T03:20:29.250Z,105.20
2023-02-27T03:23:00.291Z,147.27
2023-02-27T03:25:28.208Z,69.90
2023-02-27T03:28:00.908Z,120.68
2023-02-27T03:30:45.983Z,59.70
2023-02-27T03:37:44.317Z,62.40
2023-02-27T03:40:27.787Z,102.07
2023-02-27T03:43:06.033Z,124.80
2023-02-27T03:45:58.402Z,146.38
2023-02-27T03:48:25.405Z,61.80
2023-02-27T03:50:52.208Z,99.30
2023-02-27T03:53:34.897Z,70.38
2023-02-27T03:56:03.482Z,65.88
2023-02-27T03:58:30.398Z,86.38
2023-02-27T04:00:57.051Z,67.78
2023-02-27T04:03:23.754Z,77.75
2023-02-27T04:05:50.765Z,67.53
2023-02-27T04:08:42.241Z,69.47
2023-02-27T04:11:20.705Z,60.53
2023-02-27T04:14:05.318Z,78.80
2023-02-27T04:16:47.226Z,70.15
2023-02-27T04:19:32.064Z,72.95
2023-02-27T04:22:04.223Z,86.15
2023-02-27T04:24:50.642Z,72.45
2023-02-27T04:27:40.929Z,80.75
2023-02-27T04:30:16.743Z,101.15
2023-02-27T04:32:50.303Z,58.42
2023-02-27T04:35:26.430Z,112.13
2023-02-27T04:38:04.518Z,67.65
2023-02-27T04:40:44.825Z,72.03
2023-02-27T04:43:12.496Z,78.60
2023-02-27T04:45:41.369Z,65.53
2023-02-27T04:48:21.637Z,125.30
2023-02-27T04:51:16.415Z,65.47
2023-02-27T04:53:51.154Z,62.97
2023-02-27T04:56:31.774Z,107.22
2023-02-27T04:59:22.618Z,75.22
2023-02-27T05:01:55.779Z,69.90
2023-02-27T05:04:24.603Z,66.00
2023-02-27T05:06:54.309Z,69.95
2023-02-27T05:09:32.771Z,78.20
2023-02-27T05:12:06.216Z,138.30
2023-02-27T05:14:37.129Z,60.10
2023-02-27T05:17:07.960Z,82.30
2023-02-27T05:22:24.104Z,81.53
2023-02-27T05:24:59.666Z,77.68
2023-02-27T05:27:47.057Z,72.47
2023-02-27T05:30:36.685Z,134.15
2023-02-27T05:33:22.078Z,134.82
2023-02-27T05:35:53.197Z,68.03
2023-02-27T05:38:27.157Z,88.22
2023-02-27T05:41:03.538Z,73.60
2023-02-27T05:43:35.712Z,81.07
2023-02-27T05:46:12.723Z,72.03
2023-02-27T05:48:43.440Z,85.75
2023-02-27T05:51:11.939Z,65.13
2023-02-27T05:53:42.687Z,71.53
2023-02-27T05:56:10.277Z,66.38
2023-02-27T05:58:44.339Z,105.95
2023-02-27T06:01:12.407Z,72.50
2023-02-27T06:03:40.630Z,73.20
2023-02-27T06:06:17.560Z,68.80
2023-02-27T06:08:44.826Z,87.28
2023-02-27T06:11:13.141Z,69.63
2023-02-27T06:13:41.932Z,141.82
2023-02-27T06:16:10.693Z,68.78
2023-02-27T06:18:37.250Z,73.32
2023-02-27T06:21:03.973Z,67.50
2023-02-27T06:23:31.620Z,68.30
2023-02-27T06:25:58.310Z,105.25
2023-02-27T06:28:25.040Z,79.63
2023-02-27T06:30:55.376Z,95.13
2023-02-27T06:33:21.960Z,68.60
2023-02-27T06:35:49.416Z,138.70
2023-02-27T06:38:16.274Z,66.97
2023-02-27T06:40:42.849Z,71.95
2023-02-27T06:43:09.643Z,49.78
2023-02-27T06:45:36.900Z,17.40
2023-02-27T06:48:03.483Z,43.78
2023-02-27T06:50:30.044Z,10.82
2023-02-27T06:52:56.580Z,11.32
2023-02-27T06:55:24.890Z,11.38
2023-02-27T06:57:51.400Z,40.97
2023-02-27T07:00:18.500Z,11.00
2023-02-27T07:02:45.873Z,11.63
2023-02-27T07:05:12.746Z,10.80
2023-02-27T07:07:39.559Z,10.98
2023-02-27T07:10:08.286Z,10.77
2023-02-27T07:12:34.836Z,11.32
2023-02-27T07:15:01.433Z,10.73
2023-02-27T07:17:28.000Z,10.30
2023-02-27T07:19:54.604Z,11.00
2023-02-27T07:22:21.206Z,11.07
2023-02-27T07:24:47.902Z,10.95
2023-02-27T07:27:14.530Z,9.95
2023-02-27T07:29:41.075Z,9.57
2023-02-27T07:32:07.816Z,8.82
2023-02-27T07:34:34.967Z,8.48
2023-02-27T07:37:01.476Z,8.70
2023-02-27T07:39:28.164Z,6.90
2023-02-27T07:41:54.935Z,7.30
2023-02-27T07:44:22.404Z,6.78
2023-02-27T07:46:49.131Z,6.22
2023-02-27T07:49:15.800Z,6.10
2023-02-27T07:51:42.360Z,6.53
2023-02-27T07:54:08.889Z,6.93
2023-02-27T07:56:35.422Z,5.57
2023-02-27T07:59:01.951Z,6.60
2023-02-27T08:01:28.651Z,5.60
2023-02-27T08:03:56.397Z,6.43
2023-02-27T08:06:23.558Z,6.75
2023-02-27T08:08:50.866Z,6.25
2023-02-27T08:11:18.411Z,6.63
2023-02-27T08:14:02.799Z,6.63
2023-02-27T08:16:31.008Z,6.15
2023-02-27T08:18:58.227Z,6.60
2023-02-27T08:21:25.113Z,6.32
2023-02-27T08:23:51.960Z,6.22
2023-02-27T08:26:18.642Z,6.13
2023-02-27T08:28:45.918Z,5.72
2023-02-27T08:31:12.769Z,5.85
2023-02-27T08:33:39.448Z,5.65
2023-02-27T08:36:07.354Z,5.60
2023-02-27T08:38:33.943Z,5.72
2023-02-27T08:41:00.513Z,5.55
2023-02-27T08:43:27.056Z,5.70
2023-02-27T08:45:53.886Z,5.80
2023-02-27T08:48:20.681Z,5.20
2023-02-27T08:50:47.544Z,5.20
2023-02-27T08:53:14.400Z,5.80
2023-02-27T08:55:41.260Z,5.97
2023-02-27T08:58:08.582Z,5.55
2023-02-27T09:00:35.539Z,5.57
2023-02-27T09:03:02.325Z,5.93
2023-02-27T09:05:29.087Z,6.28
2023-02-27T09:07:55.762Z,5.38
2023-02-27T09:10:22.631Z,6.00
2023-02-27T09:12:49.376Z,5.50
2023-02-27T09:15:16.460Z,5.38
2023-02-27T09:17:43.111Z,6.72
2023-02-27T09:20:10.713Z,6.13
2023-02-27T09:22:37.293Z,5.45
2023-02-27T09:25:04.325Z,5.95
2023-02-27T09:27:30.920Z,5.90
2023-02-27T09:29:57.549Z,5.85
2023-02-27T09:32:24.724Z,5.38
2023-02-27T09:34:51.644Z,5.72
2023-02-27T09:37:21.271Z,5.35
2023-02-27T09:39:47.915Z,4.75
2023-02-27T09:42:17.328Z,5.20
2023-02-27T09:44:56.335Z,5.65
2023-02-27T09:47:30.138Z,4.55
2023-02-27T09:50:02.695Z,4.03
2023-02-27T09:52:32.092Z,4.53
2023-02-27T09:54:59.007Z,3.83
2023-02-27T09:57:37.760Z,3.78
2023-02-27T10:00:27.608Z,4.40
2023-02-27T10:03:13.032Z,3.20
2023-02-27T10:05:51.970Z,3.60
2023-02-27T10:08:26.868Z,4.63
2023-02-27T10:11:01.464Z,4.20
2023-02-27T10:13:47.591Z,4.07
2023-02-27T10:16:17.616Z,3.85
2023-02-27T10:18:49.017Z,3.90
2023-02-27T10:21:30.805Z,3.55
2023-02-27T10:24:27.355Z,3.65
2023-02-27T10:26:56.228Z,3.78
2023-02-27T10:29:29.459Z,3.95
2023-02-27T10:32:04.129Z,3.92
2023-02-27T10:34:31.519Z,3.67
2023-02-27T10:37:00.948Z,3.55
2023-02-27T10:39:28.019Z,3.67
2023-02-27T10:41:55.292Z,3.70
2023-02-27T10:44:24.369Z,4.32
2023-02-27T10:46:52.094Z,3.53
2023-02-27T10:49:21.689Z,4.25
2023-02-27T10:52:05.919Z,3.58
2023-02-27T10:54:32.515Z,2.72
2023-02-27T10:57:01.281Z,3.50
2023-02-27T10:59:35.694Z,2.75
2023-02-27T11:02:06.367Z,2.92
2023-02-27T11:04:36.324Z,3.33
2023-02-27T11:07:05.390Z,3.28
2023-02-27T11:09:33.200Z,3.35
2023-02-27T11:12:29.044Z,2.47
2023-02-27T11:14:57.958Z,2.70
2023-02-27T11:17:30.286Z,2.83
2023-02-27T11:19:58.059Z,2.92
2023-02-27T11:22:27.443Z,3.10
2023-02-27T11:25:21.904Z,2.83
2023-02-27T11:27:51.319Z,2.95
2023-02-27T11:30:28.634Z,3.50
2023-02-27T11:32:57.730Z,2.70
2023-02-27T11:35:26.504Z,3.60
2023-02-27T11:37:54.931Z,3.53
2023-02-27T11:40:30.268Z,3.05
2023-02-27T11:43:00.743Z,3.20
2023-02-27T11:46:16.007Z,3.65
2023-02-27T11:48:35.027Z,3.40
2023-02-27T11:51:11.067Z,3.42
2023-02-27T11:54:18.755Z,4.15
2023-02-27T11:57:00.576Z,3.55
2023-02-27T11:59:58.304Z,4.47
2023-02-27T12:02:48.040Z,3.90
2023-02-27T12:05:18.653Z,4.07
2023-02-27T12:07:54.244Z,3.80
2023-02-27T12:10:38.532Z,4.10
2023-02-27T12:13:12.673Z,3.80
2023-02-27T12:15:47.467Z,4.32
2023-02-27T12:18:19.716Z,4.18
2023-02-27T12:21:10.898Z,3.53
2023-02-27T12:23:46.068Z,3.83
2023-02-27T12:26:44.910Z,3.72
2023-02-27T12:29:19.466Z,3.63
2023-02-27T12:31:52.957Z,2.97
2023-02-27T12:34:34.949Z,3.20
2023-02-27T12:37:10.603Z,3.35
2023-02-27T12:39:38.782Z,3.50
2023-02-27T12:42:21.068Z,3.63
2023-02-27T12:45:27.160Z,2.85
2023-02-27T12:48:02.619Z,3.45
2023-02-27T12:51:00.413Z,3.50
2023-02-27T12:53:43.145Z,3.60
2023-02-27T12:56:42.105Z,2.80
2023-02-27T12:59:24.811Z,2.88
2023-02-27T13:01:59.248Z,2.90
2023-02-27T13:04:52.018Z,3.83
2023-02-27T13:07:26.710Z,3.00
2023-02-27T13:09:59.395Z,3.55
2023-02-27T13:12:40.839Z,2.80
2023-02-27T13:18:29.152Z,2.97
2023-02-27T13:21:17.438Z,3.20
2023-02-27T13:24:02.967Z,3.20
2023-02-27T13:26:35.820Z,3.03
2023-02-27T13:29:03.740Z,3.40
2023-02-27T13:31:35.550Z,4.28
2023-02-27T13:34:13.671Z,3.45
2023-02-27T13:36:47.480Z,4.10
2023-02-27T13:39:56.023Z,3.78
2023-02-27T13:42:25.502Z,3.95
2023-02-27T13:45:18.022Z,3.38
2023-02-27T13:47:50.073Z,3.05
2023-02-27T13:50:23.424Z,3.17
2023-02-27T13:52:50.946Z,2.85
2023-02-27T13:55:39.976Z,3.00
2023-02-27T13:58:17.644Z,3.35
2023-02-27T14:00:54.325Z,3.42
2023-02-27T14:03:25.736Z,3.28
2023-02-27T14:05:55.120Z,2.85
2023-02-27T14:08:30.883Z,3.08
2023-02-27T14:11:00.380Z,3.17
2023-02-27T14:13:45.062Z,3.10
2023-02-27T14:16:13.230Z,3.13
2023-02-27T14:18:51.845Z,3.45
2023-02-27T14:21:56.102Z,2.58
2023-02-27T14:24:26.973Z,2.83
2023-02-27T14:26:54.626Z,3.17
2023-02-27T14:29:24.655Z,3.25
2023-02-27T14:31:53.089Z,3.20
2023-02-27T14:34:21.227Z,3.60
2023-02-27T14:36:52.124Z,3.58
2023-02-27T14:39:30.921Z,3.65
2023-02-27T14:42:16.193Z,3.70
2023-02-27T14:44:44.017Z,3.47
2023-02-27T14:47:18.069Z,3.30
2023-02-27T14:49:47.226Z,3.28
2023-02-27T14:52:20.436Z,4.25
2023-02-27T14:54:48.365Z,4.10
2023-02-27T14:57:22.209Z,2.95
2023-02-27T14:59:50.945Z,3.63
2023-02-27T15:02:26.545Z,2.72
2023-02-27T15:04:56.440Z,2.97
2023-02-27T15:07:26.700Z,2.65
2023-02-27T15:09:56.190Z,3.13
2023-02-27T15:12:23.986Z,3.85
2023-02-27T15:14:53.309Z,3.17
2023-02-27T15:17:22.747Z,3.63
2023-02-27T15:19:52.252Z,2.88
2023-02-27T15:22:39.789Z,3.40
2023-02-27T15:25:08.439Z,3.38
2023-02-27T15:27:37.412Z,3.15
2023-02-27T15:30:04.840Z,3.03
2023-02-27T15:32:34.159Z,3.42
2023-02-27T15:35:04.785Z,3.55
2023-02-27T15:37:33.281Z,3.80
2023-02-27T15:40:00.826Z,3.45
2023-02-27T15:42:33.397Z,3.38
2023-02-27T15:45:00.053Z,3.75
2023-02-27T15:47:31.361Z,2.95
2023-02-27T15:50:07.127Z,2.83
2023-02-27T15:52:41.632Z,3.33
2023-02-27T15:55:16.169Z,3.20
2023-02-27T15:57:56.622Z,3.33
2023-02-27T16:00:30.605Z,3.92
2023-02-27T16:02:58.064Z,3.28
2023-02-27T16:05:35.925Z,3.75
2023-02-27T16:08:04.014Z,4.93
2023-02-27T16:10:36.738Z,3.50
2023-02-27T16:13:28.827Z,3.20
2023-02-27T16:16:05.643Z,3.17
2023-02-27T16:18:44.671Z,3.28
2023-02-27T16:21:14.547Z,3.50
2023-02-27T16:23:41.934Z,3.72
2023-02-27T16:26:08.682Z,3.95
2023-02-27T16:28:45.185Z,3.40
2023-02-27T16:31:22.816Z,2.78
2023-02-27T16:33:49.462Z,3.28
2023-02-27T16:36:21.670Z,3.35
2023-02-27T16:38:49.363Z,3.38
2023-02-27T16:41:18.125Z,3.55
2023-02-27T16:43:46.661Z,3.47
2023-02-27T16:46:19.858Z,3.97
2023-02-27T16:48:49.884Z,4.20
2023-02-27T16:51:24.623Z,4.18
2023-02-27T16:53:51.995Z,3.90
2023-02-27T16:56:23.684Z,4.55
2023-02-27T16:58:55.673Z,4.03
2023-02-27T17:01:22.599Z,3.83
2023-02-27T17:03:49.195Z,3.90
2023-02-27T17:06:15.727Z,4.32
2023-02-27T17:08:44.054Z,4.00
2023-02-27T17:11:11.871Z,4.32
2023-02-27T17:13:38.563Z,3.90
2023-02-27T17:16:06.272Z,4.03
2023-02-27T17:18:33.910Z,3.78
2023-02-27T17:21:01.961Z,3.88
2023-02-27T17:23:28.528Z,4.65
2023-02-27T17:25:55.859Z,4.57
2023-02-27T17:28:23.716Z,4.30
2023-02-27T17:30:50.584Z,3.92
2023-02-27T17:33:17.522Z,3.95
2023-02-27T17:35:44.073Z,3.75
2023-02-27T17:38:10.638Z,4.22
2023-02-27T17:40:39.172Z,4.15
2023-02-27T17:43:06.100Z,3.60
2023-02-27T17:45:32.707Z,3.83
2023-02-27T17:47:59.839Z,3.80
2023-02-27T17:50:26.433Z,3.33
2023-02-27T17:52:52.988Z,3.00
2023-02-27T17:55:19.745Z,3.17
2023-02-27T17:57:46.266Z,2.97
2023-02-27T18:00:15.520Z,3.42
2023-02-27T18:02:43.916Z,3.13
2023-02-27T18:05:10.610Z,3.58
2023-02-27T18:07:37.180Z,3.47
2023-02-27T18:10:05.844Z,3.63
2023-02-27T18:12:32.726Z,3.63
2023-02-27T18:14:59.472Z,3.42
2023-02-27T18:17:26.014Z,3.63
2023-02-27T18:19:52.555Z,3.25
2023-02-27T18:22:21.537Z,3.60
2023-02-27T18:24:48.838Z,3.22
2023-02-27T18:27:16.597Z,3.65
2023-02-27T18:29:45.823Z,3.20
2023-02-27T18:32:12.910Z,3.10
2023-02-27T18:34:40.598Z,3.10
2023-02-27T18:37:07.536Z,3.33
2023-02-27T18:39:35.213Z,3.08
2023-02-27T18:42:01.792Z,3.50
2023-02-27T18:44:28.335Z,3.28
2023-02-27T18:46:55.051Z,3.42
2023-02-27T18:49:21.794Z,3.10
2023-02-27T18:51:50.050Z,3.15
2023-02-27T18:54:16.579Z,3.60
2023-02-27T18:56:43.259Z,3.30
2023-02-27T18:59:11.920Z,3.13
2023-02-27T19:01:38.557Z,3.20
2023-02-27T19:04:06.788Z,3.72
2023-02-27T19:06:41.328Z,3.50
2023-02-27T19:09:12.587Z,3.20
2023-02-27T19:14:07.785Z,2.83
2023-02-27T19:16:34.638Z,3.60
2023-02-27T19:19:02.301Z,4.65
2023-02-27T19:21:29.318Z,4.32
2023-02-27T19:23:56.468Z,3.63
2023-02-27T19:26:24.192Z,4.63
2023-02-27T19:28:53.494Z,4.40
2023-02-27T19:31:21.660Z,3.80
2023-02-27T19:33:48.655Z,3.80
2023-02-27T19:36:18.384Z,3.88
2023-02-27T19:38:48.382Z,3.80
2023-02-27T19:41:17.096Z,3.97
2023-02-27T19:43:44.415Z,4.75
2023-02-27T19:46:14.414Z,3.88
2023-02-27T19:48:41.275Z,4.18
2023-02-27T19:51:10.744Z,4.68
2023-02-27T19:53:38.561Z,4.95
2023-02-27T19:56:08.535Z,6.05
2023-02-27T19:58:36.091Z,5.47
2023-02-27T20:01:03.757Z,5.38
2023-02-27T20:03:30.680Z,4.50
2023-02-27T20:05:57.336Z,4.95
2023-02-27T20:08:23.910Z,4.55
2023-02-27T20:10:55.074Z,4.38
2023-02-27T20:13:21.689Z,4.22
2023-02-27T20:15:57.958Z,4.50
2023-02-27T20:18:24.684Z,4.40
2023-02-27T20:21:05.389Z,5.57
2023-02-27T20:23:34.689Z,4.97
2023-02-27T20:26:01.827Z,4.47
2023-02-27T20:28:28.487Z,4.47
2023-02-27T20:30:55.062Z,5.63
2023-02-27T20:33:21.587Z,5.78
2023-02-27T20:35:48.236Z,4.97
2023-02-27T20:38:16.417Z,5.47
2023-02-27T20:40:43.052Z,5.72
2023-02-27T20:43:09.666Z,5.28
2023-02-27T20:45:39.737Z,5.70
2023-02-27T20:48:06.709Z,5.27
2023-02-27T20:50:34.120Z,5.43
2023-02-27T20:53:03.254Z,5.78
2023-02-27T20:55:30.154Z,5.55
2023-02-27T20:57:56.638Z,5.60
2023-02-27T21:00:25.283Z,5.80
2023-02-27T21:02:51.960Z,5.85
2023-02-27T21:05:18.742Z,6.43
2023-02-27T21:07:46.592Z,6.38
2023-02-27T21:10:13.783Z,6.50
2023-02-27T21:12:40.379Z,5.43
2023-02-27T21:15:07.418Z,5.97
2023-02-27T21:17:35.026Z,6.35
2023-02-27T21:20:06.680Z,6.57
2023-02-27T21:22:33.388Z,6.10
2023-02-27T21:25:00.009Z,6.80
2023-02-27T21:27:26.565Z,6.20
2023-02-27T21:29:53.196Z,6.35
2023-02-27T21:32:19.767Z,6.45
2023-02-27T21:34:46.320Z,6.28
2023-02-27T21:37:12.824Z,6.93
2023-02-27T21:39:39.543Z,6.50
2023-02-27T21:42:06.945Z,7.07
2023-02-27T21:44:33.474Z,6.60
2023-02-27T21:47:09.961Z,6.53
2023-02-27T21:49:37.680Z,6.55
2023-02-27T21:52:05.223Z,6.47
2023-02-27T21:54:31.770Z,7.82
2023-02-27T21:57:01.742Z,7.22
2023-02-27T21:59:28.542Z,7.88
2023-02-27T22:01:56.313Z,7.35
2023-02-27T22:04:22.985Z,7.88
2023-02-27T22:06:50.739Z,7.65
2023-02-27T22:09:17.757Z,7.03
2023-02-27T22:11:44.331Z,7.60
2023-02-27T22:14:11.687Z,7.05
2023-02-27T22:16:38.582Z,8.18
2023-02-27T22:19:07.462Z,7.15
2023-02-27T22:21:35.045Z,7.57
2023-02-27T22:24:01.953Z,8.02
2023-02-27T22:26:31.040Z,9.95
2023-02-27T22:28:58.472Z,7.57
2023-02-27T22:31:28.073Z,8.43
2023-02-27T22:33:58.757Z,8.43
2023-02-27T22:36:27.578Z,5.75
2023-02-27T22:38:54.079Z,8.15
2023-02-27T22:41:23.156Z,8.10
2023-02-27T22:43:50.317Z,7.45
2023-02-27T22:46:24.163Z,8.00
2023-02-27T22:48:54.954Z,8.10
2023-02-27T22:51:23.948Z,7.53
2023-02-27T22:53:50.766Z,8.35
2023-02-27T22:56:17.579Z,7.70
2023-02-27T22:58:45.282Z,7.80
2023-02-27T23:01:13.056Z,7.50
2023-02-27T23:03:41.068Z,7.90
2023-02-27T23:06:09.083Z,7.25
2023-02-27T23:08:35.877Z,6.72
2023-02-27T23:11:02.595Z,7.32
2023-02-27T23:13:29.231Z,7.25
2023-02-27T23:15:55.783Z,7.97
2023-02-27T23:18:22.337Z,7.50
2023-02-27T23:20:48.804Z,7.75
2023-02-27T23:23:15.377Z,7.75
2023-02-27T23:25:41.985Z,7.53
2023-02-27T23:28:08.500Z,8.07
2023-02-27T23:30:37.415Z,7.70
2023-02-27T23:33:04.065Z,7.68
2023-02-27T23:35:31.491Z,7.65
2023-02-27T23:37:59.086Z,7.95
2023-02-27T23:40:27.042Z,7.50
2023-02-27T23:42:54.152Z,7.97
2023-02-27T23:45:23.279Z,7.80
2023-02-27T23:47:55.562Z,7.70
2023-02-27T23:50:26.723Z,8.00
2023-02-27T23:52:54.697Z,7.82
2023-02-27T23:55:22.686Z,8.02
2023-02-27T23:57:53.717Z,8.27
